createdAt,value
2023-01-25T00:00:54.829Z,1.50
2023-01-25T00:04:56.776Z,0.80
2023-01-25T00:08:58.745Z,0.80
2023-01-25T00:13:00.735Z,1.20
2023-01-25T00:17:02.678Z,0.90
2023-01-25T00:21:19.693Z,1.70
2023-01-25T00:25:21.607Z,2.00
2023-01-25T00:29:23.496Z,1.90
2023-01-25T00:33:37.600Z,1.60
2023-01-25T00:37:46.814Z,1.80
2023-01-25T00:41:48.667Z,1.70
2023-01-25T00:45:50.489Z,2.00
2023-01-25T00:49:52.507Z,2.20
2023-01-25T00:53:54.808Z,1.90
2023-01-25T00:57:57.159Z,2.00
2023-01-25T01:01:59.146Z,2.00
2023-01-25T01:06:07.839Z,2.10
2023-01-25T01:10:10.242Z,2.00
2023-01-25T01:14:13.012Z,2.10
2023-01-25T01:18:14.939Z,2.10
2023-01-25T01:22:16.918Z,2.30
2023-01-25T01:26:21.844Z,2.30
2023-01-25T01:30:24.264Z,1.90
2023-01-25T01:34:26.632Z,1.80
2023-01-25T01:38:29.912Z,1.80
2023-01-25T01:42:31.832Z,1.90
2023-01-25T01:46:39.655Z,2.10
2023-01-25T01:50:53.714Z,2.00
2023-01-25T01:55:24.122Z,1.70
2023-01-25T01:59:39.542Z,1.80
2023-01-25T02:03:42.298Z,1.50
2023-01-25T02:07:46.975Z,1.70
2023-01-25T02:11:51.211Z,2.00
2023-01-25T02:15:56.515Z,2.20
2023-01-25T02:20:14.693Z,1.90
2023-01-25T02:24:24.027Z,1.90
2023-01-25T02:29:06.713Z,1.70
2023-01-25T02:33:09.511Z,1.80
2023-01-25T02:37:15.329Z,1.90
2023-01-25T02:41:41.539Z,2.10
2023-01-25T02:45:50.572Z,2.00
2023-01-25T02:49:52.491Z,1.70
2023-01-25T02:53:55.148Z,1.70
2023-01-25T02:57:57.031Z,1.10
2023-01-25T03:01:58.962Z,0.90
2023-01-25T03:06:02.516Z,1.10
2023-01-25T03:10:05.479Z,0.90
2023-01-25T03:14:10.247Z,1.20
2023-01-25T03:18:12.142Z,1.20
2023-01-25T03:22:14.203Z,1.30
2023-01-25T03:26:19.008Z,1.60
2023-01-25T03:30:42.224Z,1.90
2023-01-25T03:34:44.584Z,0.40
2023-01-25T03:38:46.553Z,0.70
2023-01-25T03:42:48.655Z,1.20
2023-01-25T03:46:51.037Z,1.40
2023-01-25T03:50:56.123Z,1.60
2023-01-25T03:54:58.072Z,1.60
2023-01-25T03:59:00.095Z,1.50
2023-01-25T04:03:02.588Z,1.40
2023-01-25T04:07:05.285Z,1.80
2023-01-25T04:11:10.596Z,1.60
2023-01-25T04:15:12.878Z,1.40
2023-01-25T04:19:15.052Z,1.60
2023-01-25T04:23:17.400Z,1.50
2023-01-25T04:27:20.235Z,1.40
2023-01-25T04:31:32.793Z,1.50
2023-01-25T04:35:34.778Z,1.70
2023-01-25T04:39:37.984Z,1.70
2023-01-25T04:43:40.093Z,1.50
2023-01-25T04:47:44.814Z,1.60
2023-01-25T04:51:46.809Z,1.60
2023-01-25T04:55:49.157Z,1.80
2023-01-25T04:59:51.526Z,1.60
2023-01-25T05:03:54.629Z,1.50
2023-01-25T05:08:07.886Z,1.30
2023-01-25T05:12:13.546Z,1.30
2023-01-25T05:16:27.727Z,1.30
2023-01-25T05:20:29.817Z,1.20
2023-01-25T05:24:34.389Z,1.20
2023-01-25T05:28:39.965Z,1.40
2023-01-25T05:32:56.102Z,1.50
2023-01-25T05:36:59.391Z,1.00
2023-01-25T05:41:01.729Z,0.90
2023-01-25T05:45:04.609Z,0.90
2023-01-25T05:49:08.382Z,0.70
2023-01-25T05:53:10.502Z,0.60
2023-01-25T05:57:14.844Z,0.40
2023-01-25T06:01:16.959Z,0.80
2023-01-25T06:05:25.908Z,0.90
2023-01-25T06:09:27.937Z,0.60
2023-01-25T06:13:30.558Z,0.20
2023-01-25T06:17:33.468Z,0.60
2023-01-25T06:21:55.619Z,1.20
2023-01-25T06:26:02.132Z,1.20
2023-01-25T06:30:04.438Z,1.20
2023-01-25T06:34:08.172Z,1.10
2023-01-25T06:38:10.519Z,1.10
2023-01-25T06:42:12.497Z,1.20
2023-01-25T06:46:14.606Z,1.00
2023-01-25T06:50:16.695Z,1.00
2023-01-25T06:54:18.684Z,0.80
2023-01-25T06:58:20.663Z,1.10
2023-01-25T07:02:22.679Z,0.80
2023-01-25T07:06:26.546Z,0.40
2023-01-25T07:10:28.516Z,0.50
2023-01-25T07:14:31.268Z,0.90
2023-01-25T07:18:33.996Z,1.00
2023-01-25T07:22:35.901Z,0.80
2023-01-25T07:26:37.790Z,0.90
2023-01-25T07:30:40.305Z,0.90
2023-01-25T07:34:42.225Z,0.80
2023-01-25T07:38:44.340Z,1.00
2023-01-25T07:42:46.234Z,1.20
2023-01-25T07:46:48.710Z,0.60
2023-01-25T07:51:10.593Z,0.80
2023-01-25T07:55:12.641Z,1.00
2023-01-25T07:59:14.853Z,1.40
2023-01-25T08:03:16.729Z,1.70
2023-01-25T08:07:20.197Z,1.70
2023-01-25T08:11:25.395Z,1.50
2023-01-25T08:15:27.302Z,1.70
2023-01-25T08:19:29.221Z,1.20
2023-01-25T08:23:31.370Z,1.50
2023-01-25T08:27:33.370Z,1.40
2023-01-25T08:31:36.172Z,1.30
2023-01-25T08:35:38.331Z,0.60
2023-01-25T08:39:40.155Z,0.70
2023-01-25T08:43:43.498Z,0.20
2023-01-25T08:47:45.298Z,0.50
2023-01-25T08:51:48.179Z,1.00
2023-01-25T08:55:49.996Z,1.10
2023-01-25T08:59:51.781Z,1.30
2023-01-25T09:03:54.360Z,1.30
2023-01-25T09:07:56.207Z,1.20
2023-01-25T09:11:58.030Z,0.40
2023-01-25T09:16:01.870Z,-0.70
2023-01-25T09:20:03.909Z,-0.10
2023-01-25T09:24:07.506Z,0.30
2023-01-25T09:28:11.577Z,0.60
2023-01-25T09:32:13.594Z,1.00
2023-01-25T09:36:26.329Z,1.30
2023-01-25T09:40:36.460Z,1.20
2023-01-25T09:44:47.425Z,1.30
2023-01-25T09:49:31.601Z,1.30
2023-01-25T09:53:33.523Z,1.50
2023-01-25T09:57:38.208Z,1.50
2023-01-25T10:01:51.990Z,1.50
2023-01-25T10:05:58.167Z,1.40
2023-01-25T10:10:16.355Z,1.50
2023-01-25T10:14:19.887Z,1.60
2023-01-25T10:18:36.601Z,1.30
2023-01-25T10:23:20.166Z,1.50
2023-01-25T10:27:39.331Z,1.30
2023-01-25T10:32:12.692Z,1.30
2023-01-25T10:36:23.201Z,1.30
2023-01-25T10:40:29.480Z,0.20
2023-01-25T10:44:31.477Z,0.50
2023-01-25T10:48:36.631Z,0.10
2023-01-25T10:52:38.926Z,0.50
2023-01-25T10:56:42.482Z,0.00
2023-01-25T11:00:51.725Z,-0.20
2023-01-25T11:04:53.701Z,0.20
2023-01-25T11:08:55.729Z,0.30
2023-01-25T11:13:16.117Z,0.10
2023-01-25T11:17:31.632Z,0.80
2023-01-25T11:21:34.848Z,1.20
2023-01-25T11:25:36.946Z,1.30
2023-01-25T11:29:38.942Z,1.00
2023-01-25T11:33:41.909Z,1.10
2023-01-25T11:38:13.245Z,0.90
2023-01-25T11:42:39.950Z,0.10
2023-01-25T11:46:57.320Z,0.40
2023-01-25T11:51:20.385Z,0.50
2023-01-25T11:56:01.568Z,0.30
2023-01-25T12:00:29.094Z,0.40
2023-01-25T12:04:56.970Z,0.20
2023-01-25T12:09:23.879Z,0.60
2023-01-25T12:13:47.472Z,0.90
2023-01-25T12:17:55.476Z,0.90
2023-01-25T12:22:06.339Z,0.70
2023-01-25T12:26:28.993Z,0.60
2023-01-25T12:30:55.604Z,0.60
2023-01-25T12:35:19.989Z,0.40
2023-01-25T12:39:52.354Z,0.70
2023-01-25T12:44:09.725Z,1.20
2023-01-25T12:48:20.192Z,1.50
2023-01-25T12:52:30.666Z,1.70
2023-01-25T12:57:09.890Z,1.20
2023-01-25T13:01:35.406Z,1.40
2023-01-25T13:05:40.432Z,1.20
2023-01-25T13:10:10.880Z,1.10
2023-01-25T13:14:16.006Z,1.00
2023-01-25T13:18:33.608Z,0.10
2023-01-25T13:22:44.662Z,0.80
2023-01-25T13:26:52.720Z,0.70
2023-01-25T13:30:55.811Z,0.50
2023-01-25T13:34:59.418Z,-0.10
2023-01-25T13:39:03.637Z,-0.50
2023-01-25T13:43:17.761Z,-0.50
2023-01-25T13:47:37.978Z,0.20
2023-01-25T13:51:42.026Z,0.50
2023-01-25T13:55:50.599Z,0.00
2023-01-25T14:00:19.236Z,0.50
2023-01-25T14:04:21.314Z,0.00
2023-01-25T14:08:25.271Z,-0.10
2023-01-25T14:12:27.225Z,0.00
2023-01-25T14:16:31.700Z,0.70
2023-01-25T14:20:33.813Z,0.60
2023-01-25T14:24:35.735Z,0.90
2023-01-25T14:28:37.608Z,0.70
2023-01-25T14:32:42.146Z,1.10
2023-01-25T14:36:44.066Z,0.60
2023-01-25T14:40:47.748Z,0.90
2023-01-25T14:44:49.869Z,1.00
2023-01-25T14:49:05.785Z,0.70
2023-01-25T14:53:25.015Z,0.60
2023-01-25T14:57:33.476Z,1.00
2023-01-25T15:01:40.343Z,1.30
2023-01-25T15:05:46.463Z,1.10
2023-01-25T15:10:04.055Z,1.10
2023-01-25T15:14:16.718Z,0.90
2023-01-25T15:18:48.689Z,1.10
2023-01-25T15:22:50.578Z,0.90
2023-01-25T15:26:54.567Z,0.70
2023-01-25T15:30:59.762Z,0.90
2023-01-25T15:35:02.430Z,0.60
2023-01-25T15:39:04.272Z,0.80
2023-01-25T15:43:06.101Z,0.90
2023-01-25T15:47:10.137Z,1.00
2023-01-25T15:51:13.742Z,0.80
2023-01-25T15:55:15.740Z,0.30
2023-01-25T15:59:18.708Z,0.40
2023-01-25T16:03:20.757Z,0.80
2023-01-25T16:07:28.716Z,1.00
2023-01-25T16:11:30.676Z,0.90
2023-01-25T16:15:32.624Z,0.90
2023-01-25T16:19:34.633Z,0.80
2023-01-25T16:23:36.549Z,0.70
2023-01-25T16:27:38.588Z,0.90
2023-01-25T16:31:40.620Z,1.10
2023-01-25T16:35:42.448Z,1.10
2023-01-25T16:39:44.753Z,1.00
2023-01-25T16:43:48.620Z,0.90
2023-01-25T16:47:51.364Z,0.70
2023-01-25T16:51:54.535Z,0.70
2023-01-25T16:55:58.400Z,0.70
2023-01-25T17:00:02.846Z,0.80
2023-01-25T17:04:05.153Z,0.80
2023-01-25T17:08:07.128Z,1.00
2023-01-25T17:12:12.815Z,1.10
2023-01-25T17:16:14.863Z,0.90
2023-01-25T17:20:17.004Z,0.90
2023-01-25T17:24:21.495Z,0.80
2023-01-25T17:28:23.857Z,0.80
2023-01-25T17:32:26.015Z,0.50
2023-01-25T17:36:28.073Z,0.30
2023-01-25T17:40:30.057Z,0.50
2023-01-25T17:44:32.475Z,0.80
2023-01-25T17:48:34.440Z,0.80
2023-01-25T17:52:36.511Z,1.00
2023-01-25T17:56:39.609Z,1.00
2023-01-25T18:00:41.928Z,1.10
2023-01-25T18:04:43.903Z,0.90
2023-01-25T18:08:48.266Z,0.80
2023-01-25T18:13:03.724Z,0.90
2023-01-25T18:17:06.311Z,0.90
2023-01-25T18:21:22.003Z,1.00
2023-01-25T18:25:42.059Z,1.10
2023-01-25T18:29:54.043Z,0.70
2023-01-25T18:33:56.357Z,0.70
2023-01-25T18:37:58.565Z,1.00
2023-01-25T18:42:00.471Z,1.20
2023-01-25T18:46:02.783Z,1.10
2023-01-25T18:50:05.772Z,1.20
2023-01-25T18:54:07.671Z,1.00
2023-01-25T18:58:12.327Z,1.00
2023-01-25T19:02:15.692Z,1.00
2023-01-25T19:06:19.282Z,1.10
2023-01-25T19:10:21.323Z,1.10
2023-01-25T19:14:23.989Z,1.20
2023-01-25T19:18:30.550Z,1.00
2023-01-25T19:22:32.503Z,0.90
2023-01-25T19:26:34.494Z,1.00
2023-01-25T19:30:36.463Z,1.20
2023-01-25T19:34:38.917Z,1.20
2023-01-25T19:38:40.965Z,1.30
2023-01-25T19:42:42.930Z,1.30
2023-01-25T19:46:45.027Z,1.20
2023-01-25T19:50:46.997Z,1.20
2023-01-25T19:54:48.946Z,1.10
2023-01-25T19:58:51.072Z,1.30
2023-01-25T20:02:53.677Z,1.30
2023-01-25T20:06:56.571Z,1.30
2023-01-25T20:10:59.651Z,1.30
2023-01-25T20:15:01.687Z,0.90
2023-01-25T20:19:04.174Z,1.00
2023-01-25T20:23:06.177Z,1.30
2023-01-25T20:27:08.127Z,1.30
2023-01-25T20:31:26.674Z,1.50
2023-01-25T20:35:29.792Z,1.40
2023-01-25T20:39:31.855Z,1.50
2023-01-25T20:43:34.059Z,1.40
2023-01-25T20:47:36.072Z,1.20
2023-01-25T20:51:37.995Z,0.90
2023-01-25T20:55:41.260Z,-0.10
2023-01-25T20:59:43.196Z,0.10
2023-01-25T21:03:45.215Z,0.60
2023-01-25T21:07:47.430Z,0.90
2023-01-25T21:11:49.367Z,1.00
2023-01-25T21:15:58.392Z,1.20
2023-01-25T21:20:00.372Z,1.30
2023-01-25T21:24:04.786Z,1.30
2023-01-25T21:28:06.762Z,1.30
2023-01-25T21:32:08.676Z,1.30
2023-01-25T21:36:14.971Z,0.40
2023-01-25T21:40:17.385Z,0.50
2023-01-25T21:44:37.836Z,0.70
2023-01-25T21:48:58.222Z,0.80
2023-01-25T21:53:00.185Z,0.40
2023-01-25T21:57:05.270Z,0.30
2023-01-25T22:01:09.973Z,0.50
2023-01-25T22:05:11.965Z,0.80
2023-01-25T22:09:14.120Z,0.80
2023-01-25T22:13:16.071Z,0.50
2023-01-25T22:17:19.703Z,0.20
2023-01-25T22:21:23.401Z,0.50
2023-01-25T22:25:25.541Z,0.80
2023-01-25T22:29:27.590Z,0.90
2023-01-25T22:33:29.660Z,0.70
2023-01-25T22:37:34.966Z,0.80
2023-01-25T22:41:37.908Z,0.90
2023-01-25T22:45:39.818Z,1.20
2023-01-25T22:49:41.792Z,0.70
2023-01-25T22:53:44.390Z,0.70
2023-01-25T22:57:46.339Z,0.80
2023-01-25T23:01:48.334Z,0.90
2023-01-25T23:05:57.924Z,1.00
2023-01-25T23:09:59.900Z,1.00
2023-01-25T23:14:20.869Z,0.90
2023-01-25T23:18:41.926Z,0.10
2023-01-25T23:22:44.365Z,0.20
2023-01-25T23:26:46.681Z,0.30
2023-01-25T23:30:48.953Z,0.30
2023-01-25T23:34:53.257Z,0.00
2023-01-25T23:38:56.612Z,0.00
2023-01-25T23:42:58.555Z,0.00
2023-01-25T23:47:01.740Z,0.30
2023-01-25T23:51:03.835Z,0.20
2023-01-25T23:55:06.231Z,-0.30
2023-01-25T23:59:08.155Z,-0.80
